sensor_id;sensor_type;location;lat;lon;timestamp;P1;durP1;ratioP1;P2;durP2;ratioP2
48993;SDS011;34804;49.214;12.276;2023-04-15T00:01:47;14.68;;;9.38;;
48993;SDS011;34804;49.214;12.276;2023-04-15T00:04:14;14.00;;;9.18;;
48993;SDS011;34804;49.214;12.276;2023-04-15T00:06:41;12.75;;;9.45;;
48993;SDS011;34804;49.214;12.276;2023-04-15T00:09:08;14.88;;;9.13;;
48993;SDS011;34804;49.214;12.276;2023-04-15T00:11:35;15.18;;;9.93;;
48993;SDS011;34804;49.214;12.276;2023-04-15T00:14:02;13.77;;;9.00;;
48993;SDS011;34804;49.214;12.276;2023-04-15T00:16:29;14.35;;;9.32;;
48993;SDS011;34804;49.214;12.276;2023-04-15T00:18:56;13.88;;;9.27;;
48993;SDS011;34804;49.214;12.276;2023-04-15T00:21:24;14.95;;;8.80;;
48993;SDS011;34804;49.214;12.276;2023-04-15T00:23:52;13.75;;;9.00;;
48993;SDS011;34804;49.214;12.276;2023-04-15T00:26:20;14.10;;;9.18;;
48993;SDS011;34804;49.214;12.276;2023-04-15T00:28:47;11.50;;;7.53;;
48993;SDS011;34804;49.214;12.276;2023-04-15T00:31:15;11.90;;;8.55;;
48993;SDS011;34804;49.214;12.276;2023-04-15T00:33:42;11.63;;;8.20;;
48993;SDS011;34804;49.214;12.276;2023-04-15T00:36:09;11.55;;;8.00;;
48993;SDS011;34804;49.214;12.276;2023-04-15T00:38:36;10.73;;;7.35;;
48993;SDS011;34804;49.214;12.276;2023-04-15T00:41:03;12.02;;;7.80;;
48993;SDS011;34804;49.214;12.276;2023-04-15T00:43:30;11.43;;;7.57;;
48993;SDS011;34804;49.214;12.276;2023-04-15T00:45:57;13.15;;;7.38;;
48993;SDS011;34804;49.214;12.276;2023-04-15T00:48:24;10.70;;;7.22;;
48993;SDS011;34804;49.214;12.276;2023-04-15T00:50:53;10.45;;;7.07;;
48993;SDS011;34804;49.214;12.276;2023-04-15T00:53:20;10.52;;;6.93;;
48993;SDS011;34804;49.214;12.276;2023-04-15T00:55:48;11.13;;;7.28;;
48993;SDS011;34804;49.214;12.276;2023-04-15T00:58:15;10.07;;;6.75;;
48993;SDS011;34804;49.214;12.276;2023-04-15T01:00:42;10.27;;;7.10;;
48993;SDS011;34804;49.214;12.276;2023-04-15T01:03:09;12.30;;;6.88;;
48993;SDS011;34804;49.214;12.276;2023-04-15T01:05:37;11.07;;;7.35;;
48993;SDS011;34804;49.214;12.276;2023-04-15T01:08:04;10.63;;;6.97;;
48993;SDS011;34804;49.214;12.276;2023-04-15T01:10:32;11.90;;;7.25;;
48993;SDS011;34804;49.214;12.276;2023-04-15T01:12:59;13.05;;;8.30;;
48993;SDS011;34804;49.214;12.276;2023-04-15T01:15:26;12.88;;;7.78;;
48993;SDS011;34804;49.214;12.276;2023-04-15T01:17:54;13.27;;;7.80;;
48993;SDS011;34804;49.214;12.276;2023-04-15T01:20:24;11.70;;;8.52;;
48993;SDS011;34804;49.214;12.276;2023-04-15T01:22:51;14.65;;;8.73;;
48993;SDS011;34804;49.214;12.276;2023-04-15T01:25:27;13.25;;;8.10;;
48993;SDS011;34804;49.214;12.276;2023-04-15T01:27:59;14.55;;;8.82;;
48993;SDS011;34804;49.214;12.276;2023-04-15T01:30:26;12.65;;;8.07;;
48993;SDS011;34804;49.214;12.276;2023-04-15T01:32:53;13.55;;;8.70;;
48993;SDS011;34804;49.214;12.276;2023-04-15T01:35:21;12.85;;;8.65;;
48993;SDS011;34804;49.214;12.276;2023-04-15T01:37:49;13.50;;;8.57;;
48993;SDS011;34804;49.214;12.276;2023-04-15T01:40:16;11.05;;;8.27;;
48993;SDS011;34804;49.214;12.276;2023-04-15T01:42:43;12.18;;;8.35;;
48993;SDS011;34804;49.214;12.276;2023-04-15T01:45:10;11.93;;;7.95;;
48993;SDS011;34804;49.214;12.276;2023-04-15T01:47:39;12.18;;;7.93;;
48993;SDS011;34804;49.214;12.276;2023-04-15T01:50:06;13.48;;;8.55;;
48993;SDS011;34804;49.214;12.276;2023-04-15T01:52:33;11.63;;;7.40;;
48993;SDS011;34804;49.214;12.276;2023-04-15T01:55:01;11.13;;;7.45;;
48993;SDS011;34804;49.214;12.276;2023-04-15T01:57:28;11.27;;;7.57;;
48993;SDS011;34804;49.214;12.276;2023-04-15T01:59:55;13.00;;;8.05;;
48993;SDS011;34804;49.214;12.276;2023-04-15T02:02:23;11.75;;;7.57;;
48993;SDS011;34804;49.214;12.276;2023-04-15T02:04:50;9.75;;;6.90;;
48993;SDS011;34804;49.214;12.276;2023-04-15T02:07:17;11.88;;;8.05;;
48993;SDS011;34804;49.214;12.276;2023-04-15T02:09:45;13.13;;;7.68;;
48993;SDS011;34804;49.214;12.276;2023-04-15T02:12:12;12.60;;;7.88;;
48993;SDS011;34804;49.214;12.276;2023-04-15T02:14:39;12.88;;;8.05;;
48993;SDS011;34804;49.214;12.276;2023-04-15T02:17:08;10.73;;;7.18;;
48993;SDS011;34804;49.214;12.276;2023-04-15T02:19:36;10.77;;;7.07;;
48993;SDS011;34804;49.214;12.276;2023-04-15T02:22:02;10.73;;;7.57;;
48993;SDS011;34804;49.214;12.276;2023-04-15T02:24:29;13.18;;;8.10;;
48993;SDS011;34804;49.214;12.276;2023-04-15T02:26:56;12.85;;;8.50;;
48993;SDS011;34804;49.214;12.276;2023-04-15T02:29:23;14.02;;;8.13;;
48993;SDS011;34804;49.214;12.276;2023-04-15T02:31:50;10.68;;;7.25;;
48993;SDS011;34804;49.214;12.276;2023-04-15T02:34:17;11.18;;;7.53;;
48993;SDS011;34804;49.214;12.276;2023-04-15T02:36:44;10.82;;;7.43;;
48993;SDS011;34804;49.214;12.276;2023-04-15T02:39:13;14.05;;;7.78;;
48993;SDS011;34804;49.214;12.276;2023-04-15T02:41:42;12.05;;;7.60;;
48993;SDS011;34804;49.214;12.276;2023-04-15T02:44:12;11.82;;;8.07;;
48993;SDS011;34804;49.214;12.276;2023-04-15T02:46:39;15.18;;;7.90;;
48993;SDS011;34804;49.214;12.276;2023-04-15T02:49:06;13.07;;;8.15;;
48993;SDS011;34804;49.214;12.276;2023-04-15T02:51:33;13.45;;;8.73;;
48993;SDS011;34804;49.214;12.276;2023-04-15T02:54:01;14.65;;;8.88;;
48993;SDS011;34804;49.214;12.276;2023-04-15T02:56:28;16.25;;;8.93;;
48993;SDS011;34804;49.214;12.276;2023-04-15T02:58:56;12.52;;;8.40;;
48993;SDS011;34804;49.214;12.276;2023-04-15T03:01:23;13.43;;;8.85;;
48993;SDS011;34804;49.214;12.276;2023-04-15T03:03:51;12.30;;;7.75;;
48993;SDS011;34804;49.214;12.276;2023-04-15T03:06:18;13.57;;;8.90;;
48993;SDS011;34804;49.214;12.276;2023-04-15T03:08:45;11.32;;;8.32;;
48993;SDS011;34804;49.214;12.276;2023-04-15T03:11:13;11.95;;;8.25;;
48993;SDS011;34804;49.214;12.276;2023-04-15T03:13:40;12.52;;;8.40;;
48993;SDS011;34804;49.214;12.276;2023-04-15T03:16:08;13.35;;;8.80;;
48993;SDS011;34804;49.214;12.276;2023-04-15T03:18:35;12.40;;;8.73;;
48993;SDS011;34804;49.214;12.276;2023-04-15T03:21:03;13.95;;;8.38;;
48993;SDS011;34804;49.214;12.276;2023-04-15T03:23:30;12.38;;;8.23;;
48993;SDS011;34804;49.214;12.276;2023-04-15T03:26:00;18.13;;;9.75;;
48993;SDS011;34804;49.214;12.276;2023-04-15T03:28:28;13.10;;;8.65;;
48993;SDS011;34804;49.214;12.276;2023-04-15T03:30:55;13.68;;;8.80;;
48993;SDS011;34804;49.214;12.276;2023-04-15T03:33:22;13.85;;;8.60;;
48993;SDS011;34804;49.214;12.276;2023-04-15T03:35:50;13.02;;;8.85;;
48993;SDS011;34804;49.214;12.276;2023-04-15T03:38:17;13.20;;;8.77;;
48993;SDS011;34804;49.214;12.276;2023-04-15T03:40:45;12.70;;;8.68;;
48993;SDS011;34804;49.214;12.276;2023-04-15T03:43:12;14.15;;;9.07;;
48993;SDS011;34804;49.214;12.276;2023-04-15T03:45:39;12.73;;;8.50;;
48993;SDS011;34804;49.214;12.276;2023-04-15T03:48:06;13.45;;;9.60;;
48993;SDS011;34804;49.214;12.276;2023-04-15T03:50:43;14.02;;;8.77;;
48993;SDS011;34804;49.214;12.276;2023-04-15T03:53:10;13.10;;;8.55;;
48993;SDS011;34804;49.214;12.276;2023-04-15T03:55:37;12.73;;;8.68;;
48993;SDS011;34804;49.214;12.276;2023-04-15T03:58:04;13.05;;;8.65;;
48993;SDS011;34804;49.214;12.276;2023-04-15T04:00:31;14.38;;;9.20;;
48993;SDS011;34804;49.214;12.276;2023-04-15T04:02:58;13.38;;;8.93;;
48993;SDS011;34804;49.214;12.276;2023-04-15T04:05:25;15.18;;;9.23;;
48993;SDS011;34804;49.214;12.276;2023-04-15T04:07:52;14.95;;;9.38;;
48993;SDS011;34804;49.214;12.276;2023-04-15T04:10:19;12.90;;;8.07;;
48993;SDS011;34804;49.214;12.276;2023-04-15T04:12:46;11.63;;;8.32;;
48993;SDS011;34804;49.214;12.276;2023-04-15T04:15:13;12.75;;;8.57;;
48993;SDS011;34804;49.214;12.276;2023-04-15T04:17:39;11.75;;;8.07;;
48993;SDS011;34804;49.214;12.276;2023-04-15T04:20:06;11.52;;;8.10;;
48993;SDS011;34804;49.214;12.276;2023-04-15T04:22:40;11.50;;;7.65;;
48993;SDS011;34804;49.214;12.276;2023-04-15T04:25:07;11.45;;;8.00;;
48993;SDS011;34804;49.214;12.276;2023-04-15T04:27:37;14.85;;;8.50;;
48993;SDS011;34804;49.214;12.276;2023-04-15T04:30:04;16.38;;;9.35;;
48993;SDS011;34804;49.214;12.276;2023-04-15T04:32:32;13.25;;;8.90;;
48993;SDS011;34804;49.214;12.276;2023-04-15T04:34:58;14.00;;;8.30;;
48993;SDS011;34804;49.214;12.276;2023-04-15T04:37:26;13.50;;;8.48;;
48993;SDS011;34804;49.214;12.276;2023-04-15T04:39:53;13.00;;;8.88;;
48993;SDS011;34804;49.214;12.276;2023-04-15T04:42:19;12.30;;;8.48;;
48993;SDS011;34804;49.214;12.276;2023-04-15T04:44:47;14.23;;;8.88;;
48993;SDS011;34804;49.214;12.276;2023-04-15T04:47:13;15.65;;;9.05;;
48993;SDS011;34804;49.214;12.276;2023-04-15T04:49:40;14.90;;;8.57;;
48993;SDS011;34804;49.214;12.276;2023-04-15T04:52:07;13.57;;;9.02;;
48993;SDS011;34804;49.214;12.276;2023-04-15T04:54:34;14.70;;;9.07;;
48993;SDS011;34804;49.214;12.276;2023-04-15T04:57:01;13.38;;;8.73;;
48993;SDS011;34804;49.214;12.276;2023-04-15T04:59:28;14.32;;;8.98;;
48993;SDS011;34804;49.214;12.276;2023-04-15T05:01:55;12.65;;;8.60;;
48993;SDS011;34804;49.214;12.276;2023-04-15T05:04:22;14.60;;;8.68;;
48993;SDS011;34804;49.214;12.276;2023-04-15T05:06:49;12.80;;;8.38;;
48993;SDS011;34804;49.214;12.276;2023-04-15T05:09:16;12.57;;;8.05;;
48993;SDS011;34804;49.214;12.276;2023-04-15T05:11:44;12.65;;;8.68;;
48993;SDS011;34804;49.214;12.276;2023-04-15T05:14:10;11.68;;;7.88;;
48993;SDS011;34804;49.214;12.276;2023-04-15T05:16:37;13.20;;;8.27;;
48993;SDS011;34804;49.214;12.276;2023-04-15T05:19:04;14.40;;;8.32;;
48993;SDS011;34804;49.214;12.276;2023-04-15T05:21:31;12.50;;;8.07;;
48993;SDS011;34804;49.214;12.276;2023-04-15T05:23:58;8.90;;;5.28;;
48993;SDS011;34804;49.214;12.276;2023-04-15T05:26:25;10.38;;;5.15;;
48993;SDS011;34804;49.214;12.276;2023-04-15T05:28:53;7.35;;;4.20;;
48993;SDS011;34804;49.214;12.276;2023-04-15T05:31:20;9.75;;;5.57;;
48993;SDS011;34804;49.214;12.276;2023-04-15T05:33:47;8.77;;;5.10;;
48993;SDS011;34804;49.214;12.276;2023-04-15T05:36:14;7.50;;;4.53;;
48993;SDS011;34804;49.214;12.276;2023-04-15T05:38:41;8.20;;;4.90;;
48993;SDS011;34804;49.214;12.276;2023-04-15T05:41:08;7.35;;;4.03;;
48993;SDS011;34804;49.214;12.276;2023-04-15T05:43:34;8.27;;;4.75;;
48993;SDS011;34804;49.214;12.276;2023-04-15T05:46:02;8.32;;;5.18;;
48993;SDS011;34804;49.214;12.276;2023-04-15T05:48:29;8.23;;;4.88;;
48993;SDS011;34804;49.214;12.276;2023-04-15T05:50:56;8.57;;;4.78;;
48993;SDS011;34804;49.214;12.276;2023-04-15T05:53:23;7.18;;;4.38;;
48993;SDS011;34804;49.214;12.276;2023-04-15T05:55:50;7.43;;;3.75;;
48993;SDS011;34804;49.214;12.276;2023-04-15T05:58:16;6.68;;;3.78;;
48993;SDS011;34804;49.214;12.276;2023-04-15T06:00:43;7.10;;;4.00;;
48993;SDS011;34804;49.214;12.276;2023-04-15T06:03:11;7.57;;;4.18;;
48993;SDS011;34804;49.214;12.276;2023-04-15T06:05:38;7.05;;;4.00;;
48993;SDS011;34804;49.214;12.276;2023-04-15T06:08:06;7.28;;;4.57;;
48993;SDS011;34804;49.214;12.276;2023-04-15T06:10:34;8.73;;;4.60;;
48993;SDS011;34804;49.214;12.276;2023-04-15T06:13:02;8.00;;;5.00;;
48993;SDS011;34804;49.214;12.276;2023-04-15T06:15:29;8.45;;;5.00;;
48993;SDS011;34804;49.214;12.276;2023-04-15T06:17:58;9.02;;;5.50;;
48993;SDS011;34804;49.214;12.276;2023-04-15T06:20:25;8.27;;;5.38;;
48993;SDS011;34804;49.214;12.276;2023-04-15T06:22:52;8.38;;;5.25;;
48993;SDS011;34804;49.214;12.276;2023-04-15T06:25:19;9.02;;;5.50;;
48993;SDS011;34804;49.214;12.276;2023-04-15T06:27:46;9.95;;;5.75;;
48993;SDS011;34804;49.214;12.276;2023-04-15T06:30:13;9.95;;;6.18;;
48993;SDS011;34804;49.214;12.276;2023-04-15T06:32:40;13.05;;;6.43;;
48993;SDS011;34804;49.214;12.276;2023-04-15T06:35:07;10.07;;;6.15;;
48993;SDS011;34804;49.214;12.276;2023-04-15T06:37:34;10.45;;;6.88;;
48993;SDS011;34804;49.214;12.276;2023-04-15T06:40:01;11.32;;;7.00;;
48993;SDS011;34804;49.214;12.276;2023-04-15T06:42:30;11.50;;;6.60;;
48993;SDS011;34804;49.214;12.276;2023-04-15T06:44:57;10.02;;;6.70;;
48993;SDS011;34804;49.214;12.276;2023-04-15T06:47:24;10.57;;;6.80;;
48993;SDS011;34804;49.214;12.276;2023-04-15T06:49:51;10.63;;;6.50;;
48993;SDS011;34804;49.214;12.276;2023-04-15T06:52:18;9.00;;;5.75;;
48993;SDS011;34804;49.214;12.276;2023-04-15T06:54:45;9.85;;;5.60;;
48993;SDS011;34804;49.214;12.276;2023-04-15T06:57:12;9.30;;;5.93;;
48993;SDS011;34804;49.214;12.276;2023-04-15T06:59:39;8.20;;;5.15;;
48993;SDS011;34804;49.214;12.276;2023-04-15T07:02:06;9.38;;;6.50;;
48993;SDS011;34804;49.214;12.276;2023-04-15T07:04:37;9.30;;;5.00;;
48993;SDS011;34804;49.214;12.276;2023-04-15T07:07:05;8.60;;;5.28;;
48993;SDS011;34804;49.214;12.276;2023-04-15T07:09:33;8.40;;;4.80;;
48993;SDS011;34804;49.214;12.276;2023-04-15T07:12:00;7.28;;;4.18;;
48993;SDS011;34804;49.214;12.276;2023-04-15T07:14:27;7.55;;;4.65;;
48993;SDS011;34804;49.214;12.276;2023-04-15T07:16:55;8.80;;;4.25;;
48993;SDS011;34804;49.214;12.276;2023-04-15T07:19:23;6.45;;;3.92;;
48993;SDS011;34804;49.214;12.276;2023-04-15T07:21:49;6.40;;;3.45;;
48993;SDS011;34804;49.214;12.276;2023-04-15T07:24:16;6.03;;;3.22;;
48993;SDS011;34804;49.214;12.276;2023-04-15T07:26:45;6.38;;;2.60;;
48993;SDS011;34804;49.214;12.276;2023-04-15T07:29:12;4.05;;;1.98;;
48993;SDS011;34804;49.214;12.276;2023-04-15T07:31:39;4.63;;;2.15;;
48993;SDS011;34804;49.214;12.276;2023-04-15T07:34:07;4.20;;;2.13;;
48993;SDS011;34804;49.214;12.276;2023-04-15T07:36:34;3.50;;;1.60;;
48993;SDS011;34804;49.214;12.276;2023-04-15T07:39:02;3.40;;;1.60;;
48993;SDS011;34804;49.214;12.276;2023-04-15T07:41:30;4.45;;;1.70;;
48993;SDS011;34804;49.214;12.276;2023-04-15T07:43:57;4.10;;;1.80;;
48993;SDS011;34804;49.214;12.276;2023-04-15T07:46:24;3.33;;;1.67;;
48993;SDS011;34804;49.214;12.276;2023-04-15T07:48:52;3.50;;;1.70;;
48993;SDS011;34804;49.214;12.276;2023-04-15T07:51:19;3.85;;;1.90;;
48993;SDS011;34804;49.214;12.276;2023-04-15T07:53:48;3.58;;;1.60;;
48993;SDS011;34804;49.214;12.276;2023-04-15T07:56:15;3.55;;;1.45;;
48993;SDS011;34804;49.214;12.276;2023-04-15T07:58:42;2.85;;;1.45;;
48993;SDS011;34804;49.214;12.276;2023-04-15T08:01:09;2.90;;;1.48;;
48993;SDS011;34804;49.214;12.276;2023-04-15T08:03:37;3.97;;;1.80;;
48993;SDS011;34804;49.214;12.276;2023-04-15T08:06:04;3.90;;;1.80;;
48993;SDS011;34804;49.214;12.276;2023-04-15T08:08:31;4.57;;;1.98;;
48993;SDS011;34804;49.214;12.276;2023-04-15T08:10:58;4.55;;;2.10;;
48993;SDS011;34804;49.214;12.276;2023-04-15T08:13:26;4.00;;;1.88;;
48993;SDS011;34804;49.214;12.276;2023-04-15T08:18:44;4.28;;;2.20;;
48993;SDS011;34804;49.214;12.276;2023-04-15T08:21:12;4.53;;;2.10;;
48993;SDS011;34804;49.214;12.276;2023-04-15T08:23:39;3.67;;;1.85;;
48993;SDS011;34804;49.214;12.276;2023-04-15T08:26:07;5.05;;;2.20;;
48993;SDS011;34804;49.214;12.276;2023-04-15T08:28:34;5.07;;;2.67;;
48993;SDS011;34804;49.214;12.276;2023-04-15T08:31:02;5.28;;;3.08;;
48993;SDS011;34804;49.214;12.276;2023-04-15T08:33:29;4.72;;;2.30;;
48993;SDS011;34804;49.214;12.276;2023-04-15T08:35:56;5.20;;;2.20;;
48993;SDS011;34804;49.214;12.276;2023-04-15T08:38:23;5.43;;;2.22;;
48993;SDS011;34804;49.214;12.276;2023-04-15T08:40:50;4.07;;;2.05;;
48993;SDS011;34804;49.214;12.276;2023-04-15T08:43:21;4.20;;;1.92;;
48993;SDS011;34804;49.214;12.276;2023-04-15T08:45:51;4.57;;;2.03;;
48993;SDS011;34804;49.214;12.276;2023-04-15T08:48:20;3.70;;;1.90;;
48993;SDS011;34804;49.214;12.276;2023-04-15T08:50:50;4.18;;;1.83;;
48993;SDS011;34804;49.214;12.276;2023-04-15T08:53:17;6.35;;;2.15;;
48993;SDS011;34804;49.214;12.276;2023-04-15T08:55:45;4.72;;;2.35;;
48993;SDS011;34804;49.214;12.276;2023-04-15T08:58:14;3.75;;;1.85;;
48993;SDS011;34804;49.214;12.276;2023-04-15T09:00:42;6.50;;;2.63;;
48993;SDS011;34804;49.214;12.276;2023-04-15T09:03:10;5.25;;;2.60;;
48993;SDS011;34804;49.214;12.276;2023-04-15T09:05:37;5.07;;;2.40;;
48993;SDS011;34804;49.214;12.276;2023-04-15T09:08:04;6.65;;;3.20;;
48993;SDS011;34804;49.214;12.276;2023-04-15T09:10:31;6.07;;;3.50;;
48993;SDS011;34804;49.214;12.276;2023-04-15T09:12:59;6.25;;;3.35;;
48993;SDS011;34804;49.214;12.276;2023-04-15T09:15:27;7.25;;;3.83;;
48993;SDS011;34804;49.214;12.276;2023-04-15T09:17:55;6.15;;;3.80;;
48993;SDS011;34804;49.214;12.276;2023-04-15T09:20:23;5.85;;;3.60;;
48993;SDS011;34804;49.214;12.276;2023-04-15T09:22:49;7.35;;;3.97;;
48993;SDS011;34804;49.214;12.276;2023-04-15T09:27:48;7.10;;;4.20;;
48993;SDS011;34804;49.214;12.276;2023-04-15T09:30:23;6.72;;;4.07;;
48993;SDS011;34804;49.214;12.276;2023-04-15T09:32:54;6.18;;;3.67;;
48993;SDS011;34804;49.214;12.276;2023-04-15T09:35:23;6.72;;;3.53;;
48993;SDS011;34804;49.214;12.276;2023-04-15T09:37:53;6.45;;;3.15;;
48993;SDS011;34804;49.214;12.276;2023-04-15T09:40:40;7.15;;;3.45;;
48993;SDS011;34804;49.214;12.276;2023-04-15T09:43:08;6.45;;;3.10;;
48993;SDS011;34804;49.214;12.276;2023-04-15T09:45:38;7.15;;;3.22;;
48993;SDS011;34804;49.214;12.276;2023-04-15T09:48:23;5.65;;;2.95;;
48993;SDS011;34804;49.214;12.276;2023-04-15T09:50:56;6.65;;;2.88;;
48993;SDS011;34804;49.214;12.276;2023-04-15T09:53:24;5.45;;;3.00;;
48993;SDS011;34804;49.214;12.276;2023-04-15T09:55:52;5.00;;;2.47;;
48993;SDS011;34804;49.214;12.276;2023-04-15T09:58:21;5.78;;;3.15;;
48993;SDS011;34804;49.214;12.276;2023-04-15T10:00:50;5.28;;;2.97;;
48993;SDS011;34804;49.214;12.276;2023-04-15T10:03:19;5.78;;;3.20;;
48993;SDS011;34804;49.214;12.276;2023-04-15T10:05:51;5.90;;;3.17;;
48993;SDS011;34804;49.214;12.276;2023-04-15T10:08:20;4.55;;;2.63;;
48993;SDS011;34804;49.214;12.276;2023-04-15T10:10:49;6.15;;;3.22;;
48993;SDS011;34804;49.214;12.276;2023-04-15T10:13:21;5.07;;;3.00;;
48993;SDS011;34804;49.214;12.276;2023-04-15T10:15:51;4.95;;;2.88;;
48993;SDS011;34804;49.214;12.276;2023-04-15T10:18:26;5.30;;;3.17;;
48993;SDS011;34804;49.214;12.276;2023-04-15T10:20:54;5.65;;;3.20;;
48993;SDS011;34804;49.214;12.276;2023-04-15T10:23:21;5.90;;;3.17;;
48993;SDS011;34804;49.214;12.276;2023-04-15T10:25:50;5.75;;;3.22;;
48993;SDS011;34804;49.214;12.276;2023-04-15T10:28:20;5.28;;;3.00;;
48993;SDS011;34804;49.214;12.276;2023-04-15T10:30:50;6.15;;;3.35;;
48993;SDS011;34804;49.214;12.276;2023-04-15T10:33:20;5.57;;;3.25;;
48993;SDS011;34804;49.214;12.276;2023-04-15T10:35:49;5.22;;;3.03;;
48993;SDS011;34804;49.214;12.276;2023-04-15T10:43:53;4.68;;;2.67;;
48993;SDS011;34804;49.214;12.276;2023-04-15T10:46:39;5.93;;;2.70;;
48993;SDS011;34804;49.214;12.276;2023-04-15T10:49:14;6.13;;;3.15;;
48993;SDS011;34804;49.214;12.276;2023-04-15T10:51:43;6.32;;;2.90;;
48993;SDS011;34804;49.214;12.276;2023-04-15T10:54:13;4.88;;;2.65;;
48993;SDS011;34804;49.214;12.276;2023-04-15T10:56:42;4.93;;;2.50;;
48993;SDS011;34804;49.214;12.276;2023-04-15T10:59:16;5.15;;;2.80;;
48993;SDS011;34804;49.214;12.276;2023-04-15T11:01:54;5.55;;;2.67;;
48993;SDS011;34804;49.214;12.276;2023-04-15T11:10:01;4.40;;;2.42;;
48993;SDS011;34804;49.214;12.276;2023-04-15T11:12:35;6.22;;;2.47;;
48993;SDS011;34804;49.214;12.276;2023-04-15T11:17:54;4.75;;;2.30;;
48993;SDS011;34804;49.214;12.276;2023-04-15T11:20:22;4.03;;;2.00;;
48993;SDS011;34804;49.214;12.276;2023-04-15T11:22:50;6.45;;;2.45;;
48993;SDS011;34804;49.214;12.276;2023-04-15T11:25:38;4.70;;;2.25;;
48993;SDS011;34804;49.214;12.276;2023-04-15T11:28:06;4.60;;;2.10;;
48993;SDS011;34804;49.214;12.276;2023-04-15T11:30:33;7.90;;;2.40;;
48993;SDS011;34804;49.214;12.276;2023-04-15T11:33:08;4.68;;;2.22;;
48993;SDS011;34804;49.214;12.276;2023-04-15T11:35:40;3.42;;;1.80;;
48993;SDS011;34804;49.214;12.276;2023-04-15T11:38:09;5.35;;;2.50;;
48993;SDS011;34804;49.214;12.276;2023-04-15T11:40:37;4.68;;;2.40;;
48993;SDS011;34804;49.214;12.276;2023-04-15T11:43:14;5.30;;;2.45;;
48993;SDS011;34804;49.214;12.276;2023-04-15T11:48:24;5.03;;;2.20;;
48993;SDS011;34804;49.214;12.276;2023-04-15T11:50:59;5.47;;;2.38;;
48993;SDS011;34804;49.214;12.276;2023-04-15T11:56:17;4.00;;;2.03;;
48993;SDS011;34804;49.214;12.276;2023-04-15T11:58:51;4.18;;;2.08;;
48993;SDS011;34804;49.214;12.276;2023-04-15T12:01:32;3.85;;;1.80;;
48993;SDS011;34804;49.214;12.276;2023-04-15T12:04:00;6.07;;;2.20;;
48993;SDS011;34804;49.214;12.276;2023-04-15T12:06:32;5.88;;;2.00;;
48993;SDS011;34804;49.214;12.276;2023-04-15T12:09:13;5.35;;;2.15;;
48993;SDS011;34804;49.214;12.276;2023-04-15T12:11:42;5.63;;;2.33;;
48993;SDS011;34804;49.214;12.276;2023-04-15T12:14:26;4.57;;;2.13;;
48993;SDS011;34804;49.214;12.276;2023-04-15T12:16:58;4.63;;;2.30;;
48993;SDS011;34804;49.214;12.276;2023-04-15T12:19:27;4.40;;;2.22;;
48993;SDS011;34804;49.214;12.276;2023-04-15T12:21:58;5.68;;;2.20;;
48993;SDS011;34804;49.214;12.276;2023-04-15T12:24:27;5.75;;;2.15;;
48993;SDS011;34804;49.214;12.276;2023-04-15T12:27:00;4.18;;;2.00;;
48993;SDS011;34804;49.214;12.276;2023-04-15T12:29:32;4.28;;;1.95;;
48993;SDS011;34804;49.214;12.276;2023-04-15T12:32:07;4.97;;;1.98;;
48993;SDS011;34804;49.214;12.276;2023-04-15T12:34:36;3.95;;;1.98;;
48993;SDS011;34804;49.214;12.276;2023-04-15T12:37:06;4.90;;;1.92;;
48993;SDS011;34804;49.214;12.276;2023-04-15T12:39:35;4.15;;;2.22;;
48993;SDS011;34804;49.214;12.276;2023-04-15T12:42:04;4.65;;;1.98;;
48993;SDS011;34804;49.214;12.276;2023-04-15T12:44:31;4.35;;;2.40;;
48993;SDS011;34804;49.214;12.276;2023-04-15T12:46:59;3.72;;;1.92;;
48993;SDS011;34804;49.214;12.276;2023-04-15T12:49:27;4.32;;;2.28;;
48993;SDS011;34804;49.214;12.276;2023-04-15T12:51:55;4.57;;;2.20;;
48993;SDS011;34804;49.214;12.276;2023-04-15T12:54:23;4.50;;;2.20;;
48993;SDS011;34804;49.214;12.276;2023-04-15T12:56:50;4.93;;;2.28;;
48993;SDS011;34804;49.214;12.276;2023-04-15T12:59:17;4.05;;;2.05;;
48993;SDS011;34804;49.214;12.276;2023-04-15T13:01:45;4.28;;;2.17;;
48993;SDS011;34804;49.214;12.276;2023-04-15T13:04:13;4.57;;;2.25;;
48993;SDS011;34804;49.214;12.276;2023-04-15T13:06:41;3.70;;;2.08;;
48993;SDS011;34804;49.214;12.276;2023-04-15T13:09:08;5.38;;;2.35;;
48993;SDS011;34804;49.214;12.276;2023-04-15T13:11:35;5.47;;;2.45;;
48993;SDS011;34804;49.214;12.276;2023-04-15T13:14:04;4.25;;;2.30;;
48993;SDS011;34804;49.214;12.276;2023-04-15T13:16:32;5.50;;;2.10;;
48993;SDS011;34804;49.214;12.276;2023-04-15T13:19:00;6.20;;;2.75;;
48993;SDS011;34804;49.214;12.276;2023-04-15T13:21:29;5.88;;;2.50;;
48993;SDS011;34804;49.214;12.276;2023-04-15T13:23:57;7.15;;;2.55;;
48993;SDS011;34804;49.214;12.276;2023-04-15T13:26:25;4.40;;;2.50;;
48993;SDS011;34804;49.214;12.276;2023-04-15T13:28:51;5.63;;;2.97;;
48993;SDS011;34804;49.214;12.276;2023-04-15T13:31:20;9.75;;;4.03;;
48993;SDS011;34804;49.214;12.276;2023-04-15T13:33:47;4.90;;;2.55;;
48993;SDS011;34804;49.214;12.276;2023-04-15T13:36:14;5.30;;;2.60;;
48993;SDS011;34804;49.214;12.276;2023-04-15T13:38:41;5.00;;;2.50;;
48993;SDS011;34804;49.214;12.276;2023-04-15T13:41:08;4.00;;;2.17;;
48993;SDS011;34804;49.214;12.276;2023-04-15T13:43:35;6.05;;;2.90;;
48993;SDS011;34804;49.214;12.276;2023-04-15T13:46:02;5.68;;;3.00;;
48993;SDS011;34804;49.214;12.276;2023-04-15T13:48:29;5.30;;;2.97;;
48993;SDS011;34804;49.214;12.276;2023-04-15T13:50:56;5.97;;;2.97;;
48993;SDS011;34804;49.214;12.276;2023-04-15T13:53:22;5.38;;;2.70;;
48993;SDS011;34804;49.214;12.276;2023-04-15T13:56:05;5.68;;;2.83;;
48993;SDS011;34804;49.214;12.276;2023-04-15T13:58:32;5.38;;;2.97;;
48993;SDS011;34804;49.214;12.276;2023-04-15T14:00:59;6.07;;;3.00;;
48993;SDS011;34804;49.214;12.276;2023-04-15T14:03:30;5.10;;;2.75;;
48993;SDS011;34804;49.214;12.276;2023-04-15T14:05:57;6.05;;;3.45;;
48993;SDS011;34804;49.214;12.276;2023-04-15T14:08:24;5.22;;;2.92;;
48993;SDS011;34804;49.214;12.276;2023-04-15T14:10:51;4.75;;;2.40;;
48993;SDS011;34804;49.214;12.276;2023-04-15T14:13:18;5.72;;;3.08;;
48993;SDS011;34804;49.214;12.276;2023-04-15T14:15:45;7.47;;;3.85;;
48993;SDS011;34804;49.214;12.276;2023-04-15T14:18:12;7.05;;;3.50;;
48993;SDS011;34804;49.214;12.276;2023-04-15T14:20:39;5.50;;;3.17;;
48993;SDS011;34804;49.214;12.276;2023-04-15T14:23:06;6.30;;;3.30;;
48993;SDS011;34804;49.214;12.276;2023-04-15T14:25:33;5.68;;;2.97;;
48993;SDS011;34804;49.214;12.276;2023-04-15T14:28:00;5.85;;;2.78;;
48993;SDS011;34804;49.214;12.276;2023-04-15T14:30:29;5.97;;;3.40;;
48993;SDS011;34804;49.214;12.276;2023-04-15T14:32:56;5.57;;;3.00;;
48993;SDS011;34804;49.214;12.276;2023-04-15T14:35:23;6.05;;;4.00;;
48993;SDS011;34804;49.214;12.276;2023-04-15T14:37:52;6.57;;;3.55;;
48993;SDS011;34804;49.214;12.276;2023-04-15T14:40:19;6.25;;;3.60;;
48993;SDS011;34804;49.214;12.276;2023-04-15T14:42:46;6.78;;;3.78;;
48993;SDS011;34804;49.214;12.276;2023-04-15T14:45:13;6.07;;;3.55;;
48993;SDS011;34804;49.214;12.276;2023-04-15T14:47:40;6.43;;;3.55;;
48993;SDS011;34804;49.214;12.276;2023-04-15T14:50:07;8.18;;;3.50;;
48993;SDS011;34804;49.214;12.276;2023-04-15T14:52:34;6.20;;;3.55;;
48993;SDS011;34804;49.214;12.276;2023-04-15T14:55:08;6.50;;;3.75;;
48993;SDS011;34804;49.214;12.276;2023-04-15T14:57:36;7.05;;;4.00;;
48993;SDS011;34804;49.214;12.276;2023-04-15T15:00:04;6.78;;;3.10;;